DAL179 CYUL-KMKE
Flight info
| Callsign | DAL179 |
|---|---|
| Flight time | 1h 44m |
| Altitude | 38000 |
| Route | CYUL5 MITIG Q955 HABBS DCT ADVIK Q907 SIKBO Q905 HOCKE Q824 FNT J36 DABJU |
| Aircraft | B738/M-SDE2E3FGHIRWXY/LB1 |
Departure
| Time | 2026-04-24 12:33 |
|---|---|
| Airport | Montreal / Pierre Elliott Trudeau International Airport (CYUL) |
Arrival
| Time | 2026-04-24 14:18 |
|---|---|
| Airport | General Mitchell International Airport (KMKE) |
| Time | Latitude | Longitude | Altitude | Speed | Heading |
|---|---|---|---|---|---|
| 2026-04-24 11:57 | 45.45975 | -73.75543 | 104 ft | 0 kts | 178° |
| 2026-04-24 12:22 | 45.45979 | -73.75543 | 104 ft | 3 kts | 179° |
| 2026-04-24 12:22 | 45.46006 | -73.75543 | 106 ft | 4 kts | 184° |
| 2026-04-24 12:22 | 45.46032 | -73.75538 | 103 ft | 4 kts | 193° |
| 2026-04-24 12:22 | 45.46056 | -73.75525 | 103 ft | 4 kts | 224° |
| 2026-04-24 12:23 | 45.46065 | -73.75507 | 100 ft | 0 kts | 268° |
| 2026-04-24 12:26 | 45.46065 | -73.75515 | 103 ft | 3 kts | 268° |
| 2026-04-24 12:26 | 45.46063 | -73.75561 | 103 ft | 6 kts | 266° |
| 2026-04-24 12:26 | 45.46060 | -73.75629 | 103 ft | 8 kts | 266° |
| 2026-04-24 12:26 | 45.46075 | -73.75708 | 101 ft | 10 kts | 322° |
| 2026-04-24 12:27 | 45.46153 | -73.75726 | 101 ft | 13 kts | 357° |
| 2026-04-24 12:27 | 45.46244 | -73.75732 | 102 ft | 13 kts | 357° |
| 2026-04-24 12:27 | 45.46333 | -73.75721 | 103 ft | 14 kts | 11° |
| 2026-04-24 12:27 | 45.46433 | -73.75680 | 103 ft | 16 kts | 28° |
| 2026-04-24 12:28 | 45.46519 | -73.75576 | 104 ft | 17 kts | 42° |
| 2026-04-24 12:28 | 45.46613 | -73.75455 | 104 ft | 19 kts | 41° |
| 2026-04-24 12:28 | 45.46710 | -73.75331 | 104 ft | 19 kts | 42° |
| 2026-04-24 12:28 | 45.46811 | -73.75196 | 106 ft | 21 kts | 43° |
| 2026-04-24 12:29 | 45.46918 | -73.75056 | 108 ft | 21 kts | 43° |
| 2026-04-24 12:29 | 45.47022 | -73.74918 | 110 ft | 20 kts | 43° |
| 2026-04-24 12:29 | 45.47124 | -73.74785 | 112 ft | 20 kts | 43° |
| 2026-04-24 12:29 | 45.47222 | -73.74656 | 113 ft | 19 kts | 43° |
| 2026-04-24 12:30 | 45.47323 | -73.74523 | 114 ft | 21 kts | 43° |
| 2026-04-24 12:30 | 45.47440 | -73.74370 | 111 ft | 25 kts | 43° |
| 2026-04-24 12:30 | 45.47573 | -73.74196 | 112 ft | 26 kts | 42° |
| 2026-04-24 12:30 | 45.47703 | -73.74026 | 110 ft | 25 kts | 43° |
| 2026-04-24 12:31 | 45.47825 | -73.73868 | 110 ft | 23 kts | 43° |
| 2026-04-24 12:31 | 45.47941 | -73.73716 | 110 ft | 22 kts | 42° |
| 2026-04-24 12:31 | 45.48054 | -73.73569 | 110 ft | 22 kts | 43° |
| 2026-04-24 12:31 | 45.48149 | -73.73443 | 109 ft | 10 kts | 43° |
| 2026-04-24 12:32 | 45.48208 | -73.73432 | 111 ft | 10 kts | 322° |
| 2026-04-24 12:32 | 45.48259 | -73.73507 | 111 ft | 11 kts | 312° |
| 2026-04-24 12:32 | 45.48311 | -73.73597 | 111 ft | 12 kts | 296° |
| 2026-04-24 12:32 | 45.48271 | -73.73685 | 112 ft | 12 kts | 218° |
| 2026-04-24 12:33 | 45.48123 | -73.73866 | 112 ft | 60 kts | 222° |
| 2026-04-24 12:33 | 45.47629 | -73.74507 | 108 ft | 129 kts | 222° |
| 2026-04-24 12:33 | 45.46870 | -73.75496 | 423 ft | 154 kts | 224° |
| 2026-04-24 12:33 | 45.46089 | -73.76560 | 1137 ft | 163 kts | 228° |
| 2026-04-24 12:34 | 45.45328 | -73.77856 | 1772 ft | 171 kts | 254° |
| 2026-04-24 12:34 | 45.45275 | -73.79572 | 2223 ft | 188 kts | 284° |
| 2026-04-24 12:34 | 45.45432 | -73.81573 | 2498 ft | 218 kts | 279° |
| 2026-04-24 12:34 | 45.45544 | -73.83823 | 2891 ft | 237 kts | 277° |
| 2026-04-24 12:35 | 45.45631 | -73.86274 | 3346 ft | 255 kts | 276° |
| 2026-04-24 12:35 | 45.45700 | -73.88817 | 4272 ft | 257 kts | 275° |
| 2026-04-24 12:35 | 45.45733 | -73.91365 | 5268 ft | 260 kts | 268° |
| 2026-04-24 12:35 | 45.45106 | -73.93820 | 6124 ft | 274 kts | 237° |
| 2026-04-24 12:36 | 45.43751 | -73.95797 | 6942 ft | 284 kts | 226° |
| 2026-04-24 12:36 | 45.42278 | -73.97665 | 7695 ft | 291 kts | 226° |
| 2026-04-24 12:36 | 45.40732 | -73.99627 | 8512 ft | 296 kts | 227° |
| 2026-04-24 12:36 | 45.39209 | -74.01580 | 9322 ft | 301 kts | 228° |
| 2026-04-24 12:37 | 45.37644 | -74.03603 | 10112 ft | 307 kts | 229° |
| 2026-04-24 12:37 | 45.36059 | -74.05745 | 10507 ft | 324 kts | 235° |
| 2026-04-24 12:37 | 45.34743 | -74.08412 | 10809 ft | 336 kts | 246° |
| 2026-04-24 12:37 | 45.33540 | -74.11302 | 11482 ft | 342 kts | 246° |
| 2026-04-24 12:38 | 45.32324 | -74.14233 | 12309 ft | 345 kts | 247° |
| 2026-04-24 12:38 | 45.31088 | -74.17175 | 13168 ft | 349 kts | 247° |
| 2026-04-24 12:38 | 45.29828 | -74.20143 | 13988 ft | 353 kts | 246° |
| 2026-04-24 12:39 | 45.25893 | -74.29278 | 16193 ft | 368 kts | 246° |
| 2026-04-24 12:39 | 45.25000 | -74.31338 | 16709 ft | 371 kts | 246° |
| 2026-04-24 12:39 | 45.23171 | -74.35558 | 17646 ft | 380 kts | 245° |
| 2026-04-24 12:40 | 45.22249 | -74.37683 | 18114 ft | 384 kts | 245° |
| 2026-04-24 12:40 | 45.20484 | -74.42102 | 18939 ft | 383 kts | 253° |
| 2026-04-24 12:40 | 45.19879 | -74.44431 | 19452 ft | 377 kts | 261° |
| 2026-04-24 12:40 | 45.19177 | -74.48002 | 20171 ft | 377 kts | 262° |
| 2026-04-24 12:41 | 45.18496 | -74.51619 | 20767 ft | 383 kts | 262° |
| 2026-04-24 12:41 | 45.17803 | -74.55288 | 21352 ft | 388 kts | 262° |
| 2026-04-24 12:41 | 45.17089 | -74.58992 | 21967 ft | 392 kts | 261° |
| 2026-04-24 12:41 | 45.16357 | -74.62733 | 22586 ft | 396 kts | 261° |
| 2026-04-24 12:42 | 45.15610 | -74.66510 | 23186 ft | 400 kts | 261° |
| 2026-04-24 12:42 | 45.14852 | -74.70327 | 23745 ft | 404 kts | 260° |
| 2026-04-24 12:42 | 45.14085 | -74.74177 | 24225 ft | 408 kts | 260° |
| 2026-04-24 12:42 | 45.13306 | -74.78045 | 24777 ft | 410 kts | 259° |
| 2026-04-24 12:43 | 45.12430 | -74.81899 | 25311 ft | 413 kts | 257° |
| 2026-04-24 12:43 | 45.11483 | -74.85758 | 25806 ft | 416 kts | 256° |
| 2026-04-24 12:43 | 45.10506 | -74.89628 | 26292 ft | 418 kts | 257° |
| 2026-04-24 12:43 | 45.09523 | -74.93501 | 26842 ft | 419 kts | 257° |
| 2026-04-24 12:44 | 45.08539 | -74.97400 | 27304 ft | 422 kts | 257° |
| 2026-04-24 12:44 | 45.07553 | -75.01330 | 27712 ft | 426 kts | 256° |
| 2026-04-24 12:44 | 45.06562 | -75.05299 | 28136 ft | 429 kts | 256° |
| 2026-04-24 12:44 | 45.05567 | -75.09290 | 28574 ft | 432 kts | 256° |
| 2026-04-24 12:45 | 45.04565 | -75.13309 | 28996 ft | 434 kts | 256° |
| 2026-04-24 12:45 | 45.03557 | -75.17348 | 29408 ft | 437 kts | 256° |
| 2026-04-24 12:45 | 45.02541 | -75.21413 | 29809 ft | 440 kts | 256° |
| 2026-04-24 12:45 | 45.01517 | -75.25502 | 30182 ft | 443 kts | 256° |
| 2026-04-24 12:46 | 45.00484 | -75.29619 | 30500 ft | 445 kts | 257° |
| 2026-04-24 12:46 | 44.99446 | -75.33751 | 30775 ft | 447 kts | 258° |
| 2026-04-24 12:46 | 44.98401 | -75.37898 | 31158 ft | 448 kts | 258° |
| 2026-04-24 12:46 | 44.97356 | -75.42035 | 31587 ft | 447 kts | 258° |
| 2026-04-24 12:47 | 44.96311 | -75.46168 | 32009 ft | 446 kts | 258° |
| 2026-04-24 12:47 | 44.95266 | -75.50294 | 32380 ft | 447 kts | 257° |
| 2026-04-24 12:47 | 44.94219 | -75.54424 | 32746 ft | 447 kts | 257° |
| 2026-04-24 12:47 | 44.93170 | -75.58553 | 33149 ft | 447 kts | 257° |
| 2026-04-24 12:48 | 44.92120 | -75.62680 | 33555 ft | 446 kts | 257° |
| 2026-04-24 12:48 | 44.91070 | -75.66799 | 33944 ft | 447 kts | 257° |
| 2026-04-24 12:48 | 44.90016 | -75.70925 | 34258 ft | 447 kts | 257° |
| 2026-04-24 12:48 | 44.88963 | -75.75042 | 34601 ft | 446 kts | 256° |
| 2026-04-24 12:49 | 44.87911 | -75.79145 | 34936 ft | 444 kts | 258° |
| 2026-04-24 12:49 | 44.86865 | -75.83204 | 35460 ft | 437 kts | 258° |
| 2026-04-24 12:49 | 44.85830 | -75.87223 | 35864 ft | 436 kts | 258° |
| 2026-04-24 12:49 | 44.84796 | -75.91245 | 36097 ft | 438 kts | 258° |
| 2026-04-24 12:50 | 44.83758 | -75.95282 | 36334 ft | 439 kts | 258° |
| 2026-04-24 12:50 | 44.82715 | -75.99322 | 36655 ft | 438 kts | 257° |
| 2026-04-24 12:50 | 44.81673 | -76.03343 | 37017 ft | 436 kts | 257° |
| 2026-04-24 12:50 | 44.80633 | -76.07351 | 37338 ft | 435 kts | 257° |
| 2026-04-24 12:51 | 44.79594 | -76.11358 | 37605 ft | 436 kts | 257° |
| 2026-04-24 12:51 | 44.78553 | -76.15361 | 37883 ft | 436 kts | 257° |
| 2026-04-24 12:51 | 44.77509 | -76.19362 | 38123 ft | 436 kts | 256° |
| 2026-04-24 12:51 | 44.76306 | -76.23336 | 38041 ft | 447 kts | 248° |
| 2026-04-24 12:52 | 44.74730 | -76.27135 | 38077 ft | 451 kts | 245° |
| 2026-04-24 12:52 | 44.71411 | -76.34590 | 38079 ft | 446 kts | 245° |
| 2026-04-24 12:53 | 44.68138 | -76.41926 | 38085 ft | 442 kts | 245° |
| 2026-04-24 12:53 | 44.64913 | -76.49272 | 38092 ft | 442 kts | 246° |
| 2026-04-24 12:54 | 44.61700 | -76.56625 | 38091 ft | 442 kts | 246° |
| 2026-04-24 12:54 | 44.58480 | -76.63984 | 38083 ft | 442 kts | 246° |
| 2026-04-24 12:55 | 44.55255 | -76.71331 | 38087 ft | 443 kts | 246° |
| 2026-04-24 12:55 | 44.52046 | -76.78620 | 38081 ft | 442 kts | 246° |
| 2026-04-24 12:56 | 44.48813 | -76.85943 | 38086 ft | 442 kts | 246° |
| 2026-04-24 12:56 | 44.45574 | -76.93265 | 38086 ft | 442 kts | 246° |
| 2026-04-24 12:57 | 44.42328 | -77.00582 | 38081 ft | 442 kts | 246° |
| 2026-04-24 12:57 | 44.39077 | -77.07890 | 38081 ft | 442 kts | 246° |
| 2026-04-24 12:58 | 44.35823 | -77.15187 | 38082 ft | 442 kts | 246° |
| 2026-04-24 12:58 | 44.32563 | -77.22480 | 38047 ft | 442 kts | 246° |
| 2026-04-24 12:59 | 44.29302 | -77.29758 | 38066 ft | 442 kts | 245° |
| 2026-04-24 12:59 | 44.26039 | -77.37022 | 38067 ft | 442 kts | 245° |
| 2026-04-24 13:00 | 44.22773 | -77.44278 | 38071 ft | 442 kts | 245° |
| 2026-04-24 13:00 | 44.19613 | -77.51589 | 38065 ft | 435 kts | 253° |
| 2026-04-24 13:01 | 44.17361 | -77.59319 | 38030 ft | 430 kts | 257° |
| 2026-04-24 13:01 | 44.15208 | -77.67085 | 38073 ft | 430 kts | 257° |
| 2026-04-24 13:02 | 44.13013 | -77.74860 | 38081 ft | 433 kts | 256° |
| 2026-04-24 13:02 | 44.10770 | -77.82670 | 38064 ft | 436 kts | 256° |
| 2026-04-24 13:03 | 44.08497 | -77.90518 | 38057 ft | 438 kts | 256° |
| 2026-04-24 13:03 | 44.06206 | -77.98396 | 38025 ft | 440 kts | 256° |
| 2026-04-24 13:04 | 44.03905 | -78.06289 | 38051 ft | 442 kts | 256° |
| 2026-04-24 13:04 | 44.01587 | -78.14216 | 38054 ft | 444 kts | 255° |
| 2026-04-24 13:05 | 43.99271 | -78.22113 | 38042 ft | 445 kts | 255° |
| 2026-04-24 13:05 | 43.96928 | -78.30073 | 38054 ft | 446 kts | 255° |
| 2026-04-24 13:06 | 43.94578 | -78.38036 | 38044 ft | 446 kts | 255° |
| 2026-04-24 13:06 | 43.92221 | -78.45994 | 38054 ft | 446 kts | 255° |
| 2026-04-24 13:07 | 43.89861 | -78.53941 | 38044 ft | 445 kts | 255° |
| 2026-04-24 13:07 | 43.87499 | -78.61867 | 38046 ft | 444 kts | 255° |
| 2026-04-24 13:08 | 43.85139 | -78.69764 | 37995 ft | 443 kts | 255° |
| 2026-04-24 13:08 | 43.82782 | -78.77625 | 38021 ft | 441 kts | 254° |
| 2026-04-24 13:09 | 43.79248 | -78.89373 | 38031 ft | 440 kts | 254° |
| 2026-04-24 13:09 | 43.76886 | -78.97194 | 38030 ft | 440 kts | 254° |
| 2026-04-24 13:10 | 43.74520 | -79.05006 | 38030 ft | 440 kts | 254° |
| 2026-04-24 13:10 | 43.72150 | -79.12803 | 38025 ft | 440 kts | 254° |
| 2026-04-24 13:11 | 43.69775 | -79.20600 | 38026 ft | 440 kts | 254° |
| 2026-04-24 13:11 | 43.67409 | -79.28345 | 38024 ft | 441 kts | 253° |
| 2026-04-24 13:12 | 43.65242 | -79.36207 | 38019 ft | 433 kts | 264° |
| 2026-04-24 13:12 | 43.64335 | -79.44319 | 37993 ft | 427 kts | 269° |
| 2026-04-24 13:13 | 43.63562 | -79.52432 | 38018 ft | 426 kts | 269° |
| 2026-04-24 13:13 | 43.62754 | -79.60595 | 38029 ft | 426 kts | 269° |
| 2026-04-24 13:14 | 43.61926 | -79.68644 | 38026 ft | 427 kts | 268° |
| 2026-04-24 13:14 | 43.61078 | -79.76748 | 38019 ft | 427 kts | 268° |
| 2026-04-24 13:15 | 43.60223 | -79.84845 | 38014 ft | 426 kts | 268° |
| 2026-04-24 13:15 | 43.59364 | -79.92929 | 38014 ft | 425 kts | 268° |
| 2026-04-24 13:16 | 43.58501 | -80.00994 | 38003 ft | 424 kts | 268° |
| 2026-04-24 13:16 | 43.57635 | -80.09026 | 37986 ft | 423 kts | 267° |
| 2026-04-24 13:17 | 43.56768 | -80.17027 | 37952 ft | 421 kts | 267° |
| 2026-04-24 13:17 | 43.55898 | -80.24993 | 37973 ft | 419 kts | 267° |
| 2026-04-24 13:18 | 43.55028 | -80.32920 | 37980 ft | 417 kts | 267° |
| 2026-04-24 13:18 | 43.54155 | -80.40814 | 37979 ft | 416 kts | 267° |
| 2026-04-24 13:19 | 43.53280 | -80.48675 | 37981 ft | 415 kts | 267° |
| 2026-04-24 13:19 | 43.52402 | -80.56518 | 37970 ft | 413 kts | 266° |
| 2026-04-24 13:20 | 43.51521 | -80.64338 | 37958 ft | 413 kts | 266° |
| 2026-04-24 13:20 | 43.50636 | -80.72141 | 37963 ft | 412 kts | 266° |
| 2026-04-24 13:21 | 43.49747 | -80.79928 | 37954 ft | 412 kts | 266° |
| 2026-04-24 13:21 | 43.48853 | -80.87714 | 37953 ft | 412 kts | 266° |
| 2026-04-24 13:22 | 43.47954 | -80.95496 | 37937 ft | 411 kts | 265° |
| 2026-04-24 13:22 | 43.47056 | -81.03219 | 37940 ft | 411 kts | 265° |
| 2026-04-24 13:23 | 43.46147 | -81.10988 | 37938 ft | 411 kts | 265° |
| 2026-04-24 13:23 | 43.45233 | -81.18752 | 37937 ft | 411 kts | 265° |
| 2026-04-24 13:24 | 43.44314 | -81.26518 | 37925 ft | 411 kts | 265° |
| 2026-04-24 13:24 | 43.43389 | -81.34280 | 37920 ft | 411 kts | 264° |
| 2026-04-24 13:25 | 43.42460 | -81.42031 | 37921 ft | 411 kts | 264° |
| 2026-04-24 13:25 | 43.41526 | -81.49787 | 37918 ft | 411 kts | 264° |
| 2026-04-24 13:26 | 43.40585 | -81.57544 | 37904 ft | 411 kts | 264° |
| 2026-04-24 13:26 | 43.39638 | -81.65304 | 37908 ft | 411 kts | 264° |
| 2026-04-24 13:27 | 43.38847 | -81.71756 | 37892 ft | 412 kts | 263° |
| 2026-04-24 13:27 | 43.37891 | -81.79515 | 37892 ft | 412 kts | 263° |
| 2026-04-24 13:28 | 43.36929 | -81.87276 | 37897 ft | 412 kts | 263° |
| 2026-04-24 13:28 | 43.35961 | -81.95040 | 37894 ft | 412 kts | 263° |
| 2026-04-24 13:29 | 43.34987 | -82.02802 | 37890 ft | 412 kts | 263° |
| 2026-04-24 13:29 | 43.34008 | -82.10567 | 37885 ft | 413 kts | 263° |
| 2026-04-24 13:30 | 43.33024 | -82.18333 | 37883 ft | 413 kts | 263° |
| 2026-04-24 13:30 | 43.32039 | -82.26099 | 37882 ft | 412 kts | 264° |
| 2026-04-24 13:31 | 43.31080 | -82.33863 | 37883 ft | 413 kts | 263° |
| 2026-04-24 13:31 | 43.30072 | -82.41622 | 37860 ft | 413 kts | 263° |
| 2026-04-24 13:32 | 43.29058 | -82.49377 | 37870 ft | 413 kts | 263° |
| 2026-04-24 13:32 | 43.28049 | -82.57078 | 37867 ft | 413 kts | 263° |
| 2026-04-24 13:33 | 43.27028 | -82.64840 | 37867 ft | 413 kts | 263° |
| 2026-04-24 13:33 | 43.25856 | -82.72563 | 37847 ft | 417 kts | 254° |
| 2026-04-24 13:34 | 43.23785 | -82.80002 | 37836 ft | 418 kts | 252° |
| 2026-04-24 13:34 | 43.21655 | -82.87415 | 37848 ft | 418 kts | 252° |
| 2026-04-24 13:35 | 43.19547 | -82.94829 | 37850 ft | 418 kts | 252° |
| 2026-04-24 13:35 | 43.17450 | -83.02251 | 37847 ft | 418 kts | 252° |
| 2026-04-24 13:36 | 43.15353 | -83.09668 | 37848 ft | 418 kts | 252° |
| 2026-04-24 13:36 | 43.13248 | -83.17093 | 37826 ft | 418 kts | 252° |
| 2026-04-24 13:37 | 43.11142 | -83.24496 | 37840 ft | 417 kts | 252° |
| 2026-04-24 13:37 | 43.09033 | -83.31889 | 37832 ft | 417 kts | 252° |
| 2026-04-24 13:38 | 43.06923 | -83.39263 | 37833 ft | 416 kts | 252° |
| 2026-04-24 13:38 | 43.04826 | -83.46571 | 37837 ft | 415 kts | 252° |
| 2026-04-24 13:39 | 43.02715 | -83.53908 | 37817 ft | 415 kts | 251° |
| 2026-04-24 13:39 | 43.00604 | -83.61224 | 37835 ft | 413 kts | 251° |
| 2026-04-24 13:40 | 42.98492 | -83.68522 | 37848 ft | 413 kts | 251° |
| 2026-04-24 13:40 | 42.97210 | -83.76074 | 37853 ft | 407 kts | 268° |
| 2026-04-24 13:41 | 42.97527 | -83.83719 | 37845 ft | 403 kts | 279° |
| 2026-04-24 13:41 | 42.98333 | -83.91302 | 37822 ft | 403 kts | 280° |
| 2026-04-24 13:42 | 42.99136 | -83.98882 | 37825 ft | 403 kts | 279° |
| 2026-04-24 13:42 | 42.99914 | -84.06477 | 37818 ft | 404 kts | 279° |
| 2026-04-24 13:43 | 43.00674 | -84.14077 | 37828 ft | 404 kts | 279° |
| 2026-04-24 13:43 | 43.01427 | -84.21682 | 37823 ft | 404 kts | 279° |
| 2026-04-24 13:44 | 43.02173 | -84.29285 | 37823 ft | 404 kts | 279° |
| 2026-04-24 13:44 | 43.02915 | -84.36888 | 37822 ft | 403 kts | 278° |
| 2026-04-24 13:45 | 43.03650 | -84.44481 | 37810 ft | 403 kts | 278° |
| 2026-04-24 13:45 | 43.04379 | -84.52061 | 37783 ft | 402 kts | 278° |
| 2026-04-24 13:46 | 43.05102 | -84.59626 | 37715 ft | 402 kts | 278° |
| 2026-04-24 13:46 | 43.05464 | -84.63437 | 37271 ft | 403 kts | 278° |
| 2026-04-24 13:46 | 43.05824 | -84.67233 | 36725 ft | 401 kts | 278° |
| 2026-04-24 13:47 | 43.06178 | -84.70985 | 36394 ft | 396 kts | 277° |
| 2026-04-24 13:47 | 43.06527 | -84.74710 | 35988 ft | 393 kts | 277° |
| 2026-04-24 13:47 | 43.06873 | -84.78398 | 35606 ft | 390 kts | 277° |
| 2026-04-24 13:47 | 43.07215 | -84.82064 | 35197 ft | 388 kts | 277° |
| 2026-04-24 13:48 | 43.07554 | -84.85714 | 34816 ft | 386 kts | 277° |
| 2026-04-24 13:48 | 43.07890 | -84.89342 | 34430 ft | 384 kts | 277° |
| 2026-04-24 13:48 | 43.08225 | -84.92963 | 34025 ft | 383 kts | 277° |
| 2026-04-24 13:48 | 43.08557 | -84.96572 | 33614 ft | 382 kts | 277° |
| 2026-04-24 13:49 | 43.08883 | -85.00125 | 33194 ft | 381 kts | 277° |
| 2026-04-24 13:49 | 43.09210 | -85.03705 | 32802 ft | 379 kts | 277° |
| 2026-04-24 13:49 | 43.09535 | -85.07274 | 32412 ft | 377 kts | 276° |
| 2026-04-24 13:49 | 43.09857 | -85.10821 | 32037 ft | 375 kts | 276° |
| 2026-04-24 13:50 | 43.10176 | -85.14349 | 31666 ft | 373 kts | 276° |
| 2026-04-24 13:50 | 43.10493 | -85.17865 | 31291 ft | 371 kts | 276° |
| 2026-04-24 13:50 | 43.10807 | -85.21364 | 30922 ft | 370 kts | 276° |
| 2026-04-24 13:50 | 43.11119 | -85.24856 | 30558 ft | 369 kts | 276° |
| 2026-04-24 13:51 | 43.11429 | -85.28337 | 30166 ft | 369 kts | 276° |
| 2026-04-24 13:51 | 43.11739 | -85.31817 | 29794 ft | 368 kts | 276° |
| 2026-04-24 13:51 | 43.12047 | -85.35297 | 29376 ft | 367 kts | 276° |
| 2026-04-24 13:51 | 43.12352 | -85.38753 | 28973 ft | 365 kts | 276° |
| 2026-04-24 13:52 | 43.12655 | -85.42193 | 28595 ft | 362 kts | 276° |
| 2026-04-24 13:52 | 43.12954 | -85.45605 | 28209 ft | 360 kts | 275° |
| 2026-04-24 13:52 | 43.13250 | -85.48996 | 27832 ft | 358 kts | 275° |
| 2026-04-24 13:52 | 43.13543 | -85.52372 | 27453 ft | 356 kts | 275° |
| 2026-04-24 13:53 | 43.13834 | -85.55725 | 27088 ft | 354 kts | 275° |
| 2026-04-24 13:53 | 43.14123 | -85.59063 | 26709 ft | 352 kts | 275° |
| 2026-04-24 13:53 | 43.14409 | -85.62385 | 26346 ft | 350 kts | 275° |
| 2026-04-24 13:53 | 43.14692 | -85.65687 | 25981 ft | 348 kts | 275° |
| 2026-04-24 13:54 | 43.14973 | -85.68972 | 25623 ft | 347 kts | 275° |
| 2026-04-24 13:54 | 43.15252 | -85.72243 | 25261 ft | 345 kts | 275° |
| 2026-04-24 13:54 | 43.15528 | -85.75498 | 24904 ft | 344 kts | 275° |
| 2026-04-24 13:54 | 43.15803 | -85.78743 | 24541 ft | 342 kts | 274° |
| 2026-04-24 13:55 | 43.16075 | -85.81971 | 24172 ft | 341 kts | 274° |
| 2026-04-24 13:55 | 43.16345 | -85.85186 | 23819 ft | 339 kts | 274° |
| 2026-04-24 13:55 | 43.16614 | -85.88396 | 23455 ft | 338 kts | 274° |
| 2026-04-24 13:55 | 43.16881 | -85.91589 | 23048 ft | 337 kts | 274° |
| 2026-04-24 13:56 | 43.17145 | -85.94770 | 22660 ft | 335 kts | 274° |
| 2026-04-24 13:56 | 43.17407 | -85.97924 | 22287 ft | 332 kts | 274° |
| 2026-04-24 13:56 | 43.17666 | -86.01054 | 21931 ft | 330 kts | 274° |
| 2026-04-24 13:56 | 43.17922 | -86.04165 | 21576 ft | 327 kts | 274° |
| 2026-04-24 13:57 | 43.18176 | -86.07251 | 21225 ft | 325 kts | 274° |
| 2026-04-24 13:57 | 43.18427 | -86.10320 | 20881 ft | 323 kts | 274° |
| 2026-04-24 13:57 | 43.18674 | -86.13361 | 20543 ft | 320 kts | 274° |
| 2026-04-24 13:57 | 43.18921 | -86.16388 | 20208 ft | 318 kts | 274° |
| 2026-04-24 13:58 | 43.19165 | -86.19391 | 19890 ft | 316 kts | 273° |
| 2026-04-24 13:58 | 43.19405 | -86.22376 | 19555 ft | 315 kts | 273° |
| 2026-04-24 13:58 | 43.19645 | -86.25351 | 19244 ft | 313 kts | 272° |
| 2026-04-24 13:58 | 43.19693 | -86.28313 | 18858 ft | 310 kts | 261° |
| 2026-04-24 13:59 | 43.19353 | -86.31212 | 18412 ft | 305 kts | 257° |
| 2026-04-24 13:59 | 43.18967 | -86.34033 | 18058 ft | 299 kts | 257° |
| 2026-04-24 13:59 | 43.18578 | -86.36825 | 17709 ft | 298 kts | 256° |
| 2026-04-24 13:59 | 43.18197 | -86.39575 | 17584 ft | 289 kts | 256° |
| 2026-04-24 14:00 | 43.17828 | -86.42263 | 17331 ft | 285 kts | 256° |
| 2026-04-24 14:00 | 43.17464 | -86.44922 | 17025 ft | 283 kts | 256° |
| 2026-04-24 14:00 | 43.17104 | -86.47565 | 16724 ft | 281 kts | 256° |
| 2026-04-24 14:00 | 43.16752 | -86.50154 | 16446 ft | 279 kts | 256° |
| 2026-04-24 14:01 | 43.16393 | -86.52799 | 16147 ft | 278 kts | 256° |
| 2026-04-24 14:01 | 43.16046 | -86.55360 | 15854 ft | 277 kts | 256° |
| 2026-04-24 14:01 | 43.15695 | -86.57948 | 15586 ft | 276 kts | 255° |
| 2026-04-24 14:01 | 43.15345 | -86.60522 | 15284 ft | 275 kts | 255° |
| 2026-04-24 14:02 | 43.14996 | -86.63089 | 14984 ft | 274 kts | 255° |
| 2026-04-24 14:02 | 43.14649 | -86.65643 | 14694 ft | 273 kts | 255° |
| 2026-04-24 14:02 | 43.14302 | -86.68191 | 14403 ft | 272 kts | 254° |
| 2026-04-24 14:02 | 43.13955 | -86.70730 | 14114 ft | 271 kts | 254° |
| 2026-04-24 14:03 | 43.13609 | -86.73260 | 13828 ft | 270 kts | 254° |
| 2026-04-24 14:03 | 43.13263 | -86.75787 | 13531 ft | 270 kts | 254° |
| 2026-04-24 14:03 | 43.12918 | -86.78304 | 13211 ft | 269 kts | 254° |
| 2026-04-24 14:03 | 43.12573 | -86.80816 | 12899 ft | 268 kts | 254° |
| 2026-04-24 14:04 | 43.12229 | -86.83311 | 12597 ft | 266 kts | 254° |
| 2026-04-24 14:04 | 43.11887 | -86.85793 | 12308 ft | 265 kts | 254° |
| 2026-04-24 14:04 | 43.11546 | -86.88265 | 12024 ft | 263 kts | 254° |
| 2026-04-24 14:04 | 43.11206 | -86.90725 | 11733 ft | 262 kts | 254° |
| 2026-04-24 14:05 | 43.10867 | -86.93170 | 11451 ft | 261 kts | 254° |
| 2026-04-24 14:05 | 43.10530 | -86.95602 | 11185 ft | 260 kts | 253° |
| 2026-04-24 14:05 | 43.10193 | -86.98027 | 10886 ft | 259 kts | 253° |
| 2026-04-24 14:05 | 43.09856 | -87.00446 | 10606 ft | 259 kts | 253° |
| 2026-04-24 14:06 | 43.09519 | -87.02862 | 10319 ft | 258 kts | 253° |
| 2026-04-24 14:06 | 43.09186 | -87.05253 | 10164 ft | 252 kts | 253° |
| 2026-04-24 14:06 | 43.08860 | -87.07591 | 9925 ft | 250 kts | 253° |
| 2026-04-24 14:06 | 43.08533 | -87.09926 | 9664 ft | 250 kts | 253° |
| 2026-04-24 14:07 | 43.08205 | -87.12260 | 9361 ft | 249 kts | 253° |
| 2026-04-24 14:07 | 43.07878 | -87.14584 | 9078 ft | 249 kts | 253° |
| 2026-04-24 14:07 | 43.07552 | -87.16898 | 8801 ft | 248 kts | 253° |
| 2026-04-24 14:07 | 43.07226 | -87.19209 | 8525 ft | 247 kts | 254° |
| 2026-04-24 14:08 | 43.06902 | -87.21505 | 8257 ft | 246 kts | 254° |
| 2026-04-24 14:08 | 43.06578 | -87.23795 | 7992 ft | 245 kts | 254° |
| 2026-04-24 14:08 | 43.06255 | -87.26077 | 7703 ft | 244 kts | 254° |
| 2026-04-24 14:08 | 43.05933 | -87.28350 | 7446 ft | 243 kts | 254° |
| 2026-04-24 14:09 | 43.05611 | -87.30617 | 7183 ft | 243 kts | 254° |
| 2026-04-24 14:09 | 43.05289 | -87.32878 | 6929 ft | 242 kts | 254° |
| 2026-04-24 14:09 | 43.04968 | -87.35133 | 6664 ft | 241 kts | 255° |
| 2026-04-24 14:09 | 43.04647 | -87.37381 | 6403 ft | 241 kts | 255° |
| 2026-04-24 14:10 | 43.04435 | -87.38866 | 6240 ft | 240 kts | 255° |
| 2026-04-24 14:10 | 43.04007 | -87.41857 | 5860 ft | 239 kts | 255° |
| 2026-04-24 14:10 | 43.03689 | -87.44080 | 5588 ft | 238 kts | 256° |
| 2026-04-24 14:10 | 43.03371 | -87.46296 | 5325 ft | 237 kts | 256° |
| 2026-04-24 14:11 | 43.03055 | -87.48498 | 5065 ft | 236 kts | 256° |
| 2026-04-24 14:11 | 43.02741 | -87.50682 | 4896 ft | 231 kts | 256° |
| 2026-04-24 14:11 | 43.02141 | -87.54859 | 4678 ft | 217 kts | 256° |
| 2026-04-24 14:12 | 43.01854 | -87.56846 | 4572 ft | 210 kts | 256° |
| 2026-04-24 14:12 | 43.01576 | -87.58767 | 4481 ft | 202 kts | 256° |
| 2026-04-24 14:12 | 43.01308 | -87.60615 | 4400 ft | 195 kts | 256° |
| 2026-04-24 14:12 | 43.01028 | -87.62436 | 4329 ft | 197 kts | 252° |
| 2026-04-24 14:13 | 43.00619 | -87.64206 | 4149 ft | 195 kts | 249° |
| 2026-04-24 14:13 | 43.00336 | -87.65364 | 4041 ft | 194 kts | 250° |
| 2026-04-24 14:13 | 42.99927 | -87.67131 | 3850 ft | 197 kts | 250° |
| 2026-04-24 14:13 | 42.99499 | -87.68901 | 3679 ft | 194 kts | 250° |
| 2026-04-24 14:14 | 42.99079 | -87.70613 | 3477 ft | 187 kts | 250° |
| 2026-04-24 14:14 | 42.98670 | -87.72275 | 3231 ft | 182 kts | 251° |
| 2026-04-24 14:14 | 42.97887 | -87.75474 | 2759 ft | 171 kts | 251° |
| 2026-04-24 14:15 | 42.97521 | -87.76973 | 2542 ft | 161 kts | 251° |
| 2026-04-24 14:15 | 42.97177 | -87.78378 | 2332 ft | 151 kts | 251° |
| 2026-04-24 14:15 | 42.96861 | -87.79669 | 2182 ft | 134 kts | 251° |
| 2026-04-24 14:15 | 42.96577 | -87.80831 | 1974 ft | 124 kts | 250° |
| 2026-04-24 14:16 | 42.96307 | -87.81939 | 1820 ft | 124 kts | 250° |
| 2026-04-24 14:16 | 42.96025 | -87.83089 | 1666 ft | 130 kts | 250° |
| 2026-04-24 14:16 | 42.95737 | -87.84271 | 1465 ft | 133 kts | 250° |
| 2026-04-24 14:17 | 42.95152 | -87.86670 | 1053 ft | 127 kts | 252° |
| 2026-04-24 14:17 | 42.94885 | -87.87790 | 847 ft | 122 kts | 252° |
| 2026-04-24 14:17 | 42.94366 | -87.89960 | 681 ft | 110 kts | 252° |
| 2026-04-24 14:18 | 42.94169 | -87.90664 | 679 ft | 48 kts | 250° |
| 2026-04-24 14:18 | 42.94123 | -87.90865 | 684 ft | 12 kts | 254° |
| 2026-04-24 14:18 | 42.94101 | -87.90978 | 687 ft | 12 kts | 252° |
| 2026-04-24 14:18 | 42.94095 | -87.91088 | 687 ft | 12 kts | 285° |
| 2026-04-24 14:19 | 42.94154 | -87.91151 | 686 ft | 12 kts | 6° |
| 2026-04-24 14:19 | 42.94201 | -87.91055 | 683 ft | 14 kts | 71° |
| 2026-04-24 14:19 | 42.94235 | -87.90909 | 685 ft | 18 kts | 72° |
| 2026-04-24 14:19 | 42.94277 | -87.90735 | 682 ft | 21 kts | 70° |
| 2026-04-24 14:20 | 42.94330 | -87.90537 | 679 ft | 23 kts | 71° |
| 2026-04-24 14:20 | 42.94383 | -87.90314 | 681 ft | 23 kts | 71° |
| 2026-04-24 14:20 | 42.94420 | -87.90162 | 678 ft | 17 kts | 72° |
| 2026-04-24 14:20 | 42.94454 | -87.90018 | 679 ft | 12 kts | 72° |
| 2026-04-24 14:21 | 42.94519 | -87.89954 | 678 ft | 12 kts | 39° |
| 2026-04-24 14:21 | 42.94555 | -87.89869 | 677 ft | 9 kts | 61° |
| 2026-04-24 14:21 | 42.94609 | -87.89859 | 677 ft | 10 kts | 323° |
| 2026-04-24 14:21 | 42.94653 | -87.89877 | 676 ft | 4 kts | 350° |
| 2026-04-24 14:22 | 42.94660 | -87.89878 | 676 ft | 0 kts | 350° |